sensor_id;sensor_type;location;lat;lon;timestamp;pressure;altitude;pressure_sealevel;temperature;humidity
60676;BME280;46716;38.014;-7.874;2022-10-16T00:01:22;99966.97;;;15.79;99.46
60676;BME280;46716;38.014;-7.874;2022-10-16T00:03:25;99967.91;;;15.65;99.57
60676;BME280;46716;38.014;-7.874;2022-10-16T00:05:29;99970.69;;;15.63;99.84
60676;BME280;46716;38.014;-7.874;2022-10-16T00:07:30;99971.09;;;15.57;99.82
60676;BME280;46716;38.014;-7.874;2022-10-16T00:09:33;99976.69;;;15.52;100.00
60676;BME280;46716;38.014;-7.874;2022-10-16T00:11:38;99953.44;;;15.41;100.00
60676;BME280;46716;38.014;-7.874;2022-10-16T00:13:44;99965.50;;;15.47;100.00
60676;BME280;46716;38.014;-7.874;2022-10-16T00:15:46;99967.22;;;15.48;100.00
60676;BME280;46716;38.014;-7.874;2022-10-16T00:17:48;99947.19;;;15.42;100.00
60676;BME280;46716;38.014;-7.874;2022-10-16T00:19:49;99934.69;;;15.30;100.00
60676;BME280;46716;38.014;-7.874;2022-10-16T00:21:50;99935.66;;;15.29;100.00
60676;BME280;46716;38.014;-7.874;2022-10-16T00:23:59;99937.78;;;15.37;100.00
60676;BME280;46716;38.014;-7.874;2022-10-16T00:26:06;99940.34;;;15.38;100.00
60676;BME280;46716;38.014;-7.874;2022-10-16T00:28:08;99935.22;;;15.35;100.00
60676;BME280;46716;38.014;-7.874;2022-10-16T00:30:12;99937.06;;;15.35;100.00
60676;BME280;46716;38.014;-7.874;2022-10-16T00:32:14;99937.88;;;15.35;100.00
60676;BME280;46716;38.014;-7.874;2022-10-16T00:34:16;99922.47;;;15.27;100.00
60676;BME280;46716;38.014;-7.874;2022-10-16T00:36:19;99932.91;;;15.30;100.00
60676;BME280;46716;38.014;-7.874;2022-10-16T00:38:24;99929.56;;;15.27;100.00
60676;BME280;46716;38.014;-7.874;2022-10-16T00:40:29;99925.59;;;15.20;100.00
60676;BME280;46716;38.014;-7.874;2022-10-16T00:42:35;99926.19;;;15.10;100.00
60676;BME280;46716;38.014;-7.874;2022-10-16T00:44:54;99912.75;;;14.99;100.00
60676;BME280;46716;38.014;-7.874;2022-10-16T00:46:58;99912.94;;;14.96;100.00
60676;BME280;46716;38.014;-7.874;2022-10-16T00:49:20;99926.59;;;15.04;100.00
60676;BME280;46716;38.014;-7.874;2022-10-16T00:52:06;99915.81;;;14.92;100.00
60676;BME280;46716;38.014;-7.874;2022-10-16T00:53:49;99912.47;;;14.89;100.00
60676;BME280;46716;38.014;-7.874;2022-10-16T00:55:51;99919.41;;;14.91;100.00
60676;BME280;46716;38.014;-7.874;2022-10-16T00:57:53;99914.50;;;14.85;100.00
60676;BME280;46716;38.014;-7.874;2022-10-16T00:59:59;99917.78;;;14.89;100.00
60676;BME280;46716;38.014;-7.874;2022-10-16T01:02:03;99924.53;;;14.95;100.00
60676;BME280;46716;38.014;-7.874;2022-10-16T01:04:04;99919.41;;;14.91;100.00
60676;BME280;46716;38.014;-7.874;2022-10-16T01:11:07;99939.16;;;15.02;100.00
60676;BME280;46716;38.014;-7.874;2022-10-16T01:13:25;99943.59;;;15.01;100.00
60676;BME280;46716;38.014;-7.874;2022-10-16T01:15:47;99906.31;;;14.74;100.00
60676;BME280;46716;38.014;-7.874;2022-10-16T01:18:04;99938.41;;;14.85;100.00
60676;BME280;46716;38.014;-7.874;2022-10-16T01:20:21;99919.59;;;14.74;100.00
60676;BME280;46716;38.014;-7.874;2022-10-16T01:23:01;99915.25;;;14.58;100.00
60676;BME280;46716;38.014;-7.874;2022-10-16T01:25:17;99923.03;;;14.61;100.00
60676;BME280;46716;38.014;-7.874;2022-10-16T01:27:30;99910.91;;;14.57;100.00
60676;BME280;46716;38.014;-7.874;2022-10-16T01:29:52;99927.97;;;14.67;100.00
60676;BME280;46716;38.014;-7.874;2022-10-16T01:32:02;99926.66;;;14.60;100.00
60676;BME280;46716;38.014;-7.874;2022-10-16T01:34:17;99915.81;;;14.49;100.00
60676;BME280;46716;38.014;-7.874;2022-10-16T01:36:25;99910.69;;;14.46;100.00
60676;BME280;46716;38.014;-7.874;2022-10-16T01:38:52;99912.88;;;14.39;100.00
60676;BME280;46716;38.014;-7.874;2022-10-16T01:41:02;99907.09;;;14.32;100.00
60676;BME280;46716;38.014;-7.874;2022-10-16T01:43:20;99900.53;;;14.23;100.00
60676;BME280;46716;38.014;-7.874;2022-10-16T01:45:23;99895.63;;;14.17;100.00
60676;BME280;46716;38.014;-7.874;2022-10-16T01:47:25;99888.59;;;14.16;100.00
60676;BME280;46716;38.014;-7.874;2022-10-16T01:49:31;99916.78;;;14.33;100.00
60676;BME280;46716;38.014;-7.874;2022-10-16T01:51:34;99885.47;;;14.24;100.00
60676;BME280;46716;38.014;-7.874;2022-10-16T01:53:35;99903.69;;;14.45;100.00
60676;BME280;46716;38.014;-7.874;2022-10-16T01:55:40;99883.66;;;14.39;100.00
60676;BME280;46716;38.014;-7.874;2022-10-16T01:57:51;99885.56;;;14.37;100.00
60676;BME280;46716;38.014;-7.874;2022-10-16T01:59:57;99879.22;;;14.39;100.00
60676;BME280;46716;38.014;-7.874;2022-10-16T02:02:03;99874.66;;;14.41;100.00
60676;BME280;46716;38.014;-7.874;2022-10-16T02:04:20;99881.75;;;14.41;100.00
60676;BME280;46716;38.014;-7.874;2022-10-16T02:06:24;99892.28;;;14.42;100.00
60676;BME280;46716;38.014;-7.874;2022-10-16T02:08:28;99893.44;;;14.38;100.00
60676;BME280;46716;38.014;-7.874;2022-10-16T02:10:30;99899.59;;;14.39;100.00
60676;BME280;46716;38.014;-7.874;2022-10-16T02:12:33;99871.63;;;14.19;100.00
60676;BME280;46716;38.014;-7.874;2022-10-16T02:14:38;99901.31;;;14.25;100.00
60676;BME280;46716;38.014;-7.874;2022-10-16T02:16:42;99891.72;;;14.08;100.00
60676;BME280;46716;38.014;-7.874;2022-10-16T02:18:48;99890.88;;;14.08;100.00
60676;BME280;46716;38.014;-7.874;2022-10-16T02:21:17;99901.59;;;14.06;100.00
60676;BME280;46716;38.014;-7.874;2022-10-16T02:23:34;99901.00;;;14.01;100.00
60676;BME280;46716;38.014;-7.874;2022-10-16T02:25:40;99897.78;;;13.96;100.00
60676;BME280;46716;38.014;-7.874;2022-10-16T02:28:12;99890.66;;;13.96;100.00
60676;BME280;46716;38.014;-7.874;2022-10-16T02:31:11;99906.31;;;14.01;100.00
60676;BME280;46716;38.014;-7.874;2022-10-16T02:32:49;99881.16;;;13.92;100.00
60676;BME280;46716;38.014;-7.874;2022-10-16T02:34:56;99897.41;;;14.02;100.00
60676;BME280;46716;38.014;-7.874;2022-10-16T02:37:01;99864.59;;;13.88;100.00
60676;BME280;46716;38.014;-7.874;2022-10-16T02:39:05;99869.72;;;13.91;100.00
60676;BME280;46716;38.014;-7.874;2022-10-16T02:41:07;99867.72;;;13.95;100.00
60676;BME280;46716;38.014;-7.874;2022-10-16T02:43:10;99881.66;;;13.99;100.00
60676;BME280;46716;38.014;-7.874;2022-10-16T02:45:14;99887.72;;;14.01;100.00
60676;BME280;46716;38.014;-7.874;2022-10-16T02:47:16;99875.59;;;13.97;100.00
60676;BME280;46716;38.014;-7.874;2022-10-16T02:49:21;99890.88;;;14.08;100.00
60676;BME280;46716;38.014;-7.874;2022-10-16T02:51:24;99867.44;;;14.00;100.00
60676;BME280;46716;38.014;-7.874;2022-10-16T02:53:27;99862.41;;;13.95;100.00
60676;BME280;46716;38.014;-7.874;2022-10-16T02:55:29;99868.50;;;13.97;100.00
60676;BME280;46716;38.014;-7.874;2022-10-16T02:57:32;99879.56;;;14.04;100.00
60676;BME280;46716;38.014;-7.874;2022-10-16T02:59:36;99850.56;;;13.86;100.00
60676;BME280;46716;38.014;-7.874;2022-10-16T03:01:37;99864.22;;;13.95;100.00
60676;BME280;46716;38.014;-7.874;2022-10-16T03:03:38;99870.00;;;14.01;100.00
60676;BME280;46716;38.014;-7.874;2022-10-16T03:05:40;99862.31;;;13.97;100.00
60676;BME280;46716;38.014;-7.874;2022-10-16T03:07:42;99860.81;;;13.93;100.00
60676;BME280;46716;38.014;-7.874;2022-10-16T03:09:44;99844.19;;;13.74;100.00
60676;BME280;46716;38.014;-7.874;2022-10-16T03:11:49;99865.81;;;13.83;100.00
60676;BME280;46716;38.014;-7.874;2022-10-16T03:13:51;99827.94;;;13.50;100.00
60676;BME280;46716;38.014;-7.874;2022-10-16T03:15:53;99860.09;;;13.60;100.00
60676;BME280;46716;38.014;-7.874;2022-10-16T03:17:59;99830.53;;;13.35;100.00
60676;BME280;46716;38.014;-7.874;2022-10-16T03:20:05;99827.31;;;13.30;100.00
60676;BME280;46716;38.014;-7.874;2022-10-16T03:22:10;99841.03;;;13.37;100.00
60676;BME280;46716;38.014;-7.874;2022-10-16T03:24:19;99842.88;;;13.36;100.00
60676;BME280;46716;38.014;-7.874;2022-10-16T03:26:26;99848.50;;;13.30;100.00
60676;BME280;46716;38.014;-7.874;2022-10-16T03:28:34;99846.13;;;13.25;100.00
60676;BME280;46716;38.014;-7.874;2022-10-16T03:30:40;99847.75;;;13.28;100.00
60676;BME280;46716;38.014;-7.874;2022-10-16T03:32:45;99830.56;;;13.19;100.00
60676;BME280;46716;38.014;-7.874;2022-10-16T03:34:50;99838.44;;;13.21;100.00
60676;BME280;46716;38.014;-7.874;2022-10-16T03:36:53;99826.13;;;13.20;100.00
60676;BME280;46716;38.014;-7.874;2022-10-16T03:38:57;99817.50;;;13.16;100.00
60676;BME280;46716;38.014;-7.874;2022-10-16T03:41:05;99828.97;;;13.17;100.00
60676;BME280;46716;38.014;-7.874;2022-10-16T03:43:09;99823.75;;;13.15;100.00
60676;BME280;46716;38.014;-7.874;2022-10-16T03:45:12;99821.75;;;13.19;100.00
60676;BME280;46716;38.014;-7.874;2022-10-16T03:47:15;99831.75;;;13.30;100.00
60676;BME280;46716;38.014;-7.874;2022-10-16T03:49:21;99824.75;;;13.28;100.00
60676;BME280;46716;38.014;-7.874;2022-10-16T03:51:21;99842.25;;;13.31;100.00
60676;BME280;46716;38.014;-7.874;2022-10-16T03:53:22;99832.00;;;13.25;100.00
60676;BME280;46716;38.014;-7.874;2022-10-16T03:55:23;99843.13;;;13.32;100.00
60676;BME280;46716;38.014;-7.874;2022-10-16T03:57:24;99831.63;;;13.17;100.00
60676;BME280;46716;38.014;-7.874;2022-10-16T03:59:26;99830.84;;;13.14;100.00
60676;BME280;46716;38.014;-7.874;2022-10-16T04:01:27;99832.66;;;13.14;100.00
60676;BME280;46716;38.014;-7.874;2022-10-16T04:03:28;99844.69;;;13.20;100.00
60676;BME280;46716;38.014;-7.874;2022-10-16T04:05:28;99846.38;;;13.21;100.00
60676;BME280;46716;38.014;-7.874;2022-10-16T04:07:29;99852.38;;;13.24;100.00
60676;BME280;46716;38.014;-7.874;2022-10-16T04:09:31;99849.72;;;13.24;100.00
60676;BME280;46716;38.014;-7.874;2022-10-16T04:11:33;99847.44;;;13.18;100.00
60676;BME280;46716;38.014;-7.874;2022-10-16T04:13:33;99869.03;;;13.26;100.00
60676;BME280;46716;38.014;-7.874;2022-10-16T04:15:34;99869.72;;;13.30;100.00
60676;BME280;46716;38.014;-7.874;2022-10-16T04:17:35;99869.91;;;13.27;100.00
60676;BME280;46716;38.014;-7.874;2022-10-16T04:19:41;99858.78;;;13.20;100.00
60676;BME280;46716;38.014;-7.874;2022-10-16T04:21:43;99884.50;;;13.34;100.00
60676;BME280;46716;38.014;-7.874;2022-10-16T04:23:44;99869.72;;;13.30;100.00
60676;BME280;46716;38.014;-7.874;2022-10-16T04:25:45;99863.72;;;13.26;100.00
60676;BME280;46716;38.014;-7.874;2022-10-16T04:27:46;99859.66;;;13.21;100.00
60676;BME280;46716;38.014;-7.874;2022-10-16T04:29:47;99865.56;;;13.26;100.00
60676;BME280;46716;38.014;-7.874;2022-10-16T04:31:48;99860.13;;;13.27;100.00
60676;BME280;46716;38.014;-7.874;2022-10-16T04:33:49;99852.56;;;13.21;100.00
60676;BME280;46716;38.014;-7.874;2022-10-16T04:35:57;99857.78;;;13.23;100.00
60676;BME280;46716;38.014;-7.874;2022-10-16T04:37:59;99870.38;;;13.34;100.00
60676;BME280;46716;38.014;-7.874;2022-10-16T04:40:00;99859.66;;;13.21;100.00
60676;BME280;46716;38.014;-7.874;2022-10-16T04:42:01;99860.59;;;13.20;100.00
60676;BME280;46716;38.014;-7.874;2022-10-16T04:44:05;99882.03;;;13.31;100.00
60676;BME280;46716;38.014;-7.874;2022-10-16T04:46:06;99851.94;;;13.16;100.00
60676;BME280;46716;38.014;-7.874;2022-10-16T04:48:07;99879.47;;;13.30;100.00
60676;BME280;46716;38.014;-7.874;2022-10-16T04:50:08;99874.44;;;13.25;100.00
60676;BME280;46716;38.014;-7.874;2022-10-16T04:52:09;99864.25;;;13.17;100.00
60676;BME280;46716;38.014;-7.874;2022-10-16T04:54:10;99877.34;;;13.20;100.00
60676;BME280;46716;38.014;-7.874;2022-10-16T04:56:11;99865.28;;;13.14;100.00
60676;BME280;46716;38.014;-7.874;2022-10-16T04:58:12;99872.63;;;13.25;100.00
60676;BME280;46716;38.014;-7.874;2022-10-16T05:00:13;99873.94;;;13.18;100.00
60676;BME280;46716;38.014;-7.874;2022-10-16T05:02:19;99887.03;;;13.21;100.00
60676;BME280;46716;38.014;-7.874;2022-10-16T05:04:20;99884.63;;;13.17;100.00
60676;BME280;46716;38.014;-7.874;2022-10-16T05:06:21;99871.09;;;13.05;100.00
60676;BME280;46716;38.014;-7.874;2022-10-16T05:08:28;99870.78;;;12.95;100.00
60676;BME280;46716;38.014;-7.874;2022-10-16T05:10:30;99891.13;;;12.95;100.00
60676;BME280;46716;38.014;-7.874;2022-10-16T05:12:31;99884.13;;;12.77;100.00
60676;BME280;46716;38.014;-7.874;2022-10-16T05:14:35;99892.00;;;12.79;100.00
60676;BME280;46716;38.014;-7.874;2022-10-16T05:16:36;99886.16;;;12.72;100.00
60676;BME280;46716;38.014;-7.874;2022-10-16T05:18:37;99864.22;;;12.54;100.00
60676;BME280;46716;38.014;-7.874;2022-10-16T05:20:38;99870.09;;;12.59;100.00
60676;BME280;46716;38.014;-7.874;2022-10-16T05:22:39;99862.66;;;12.50;100.00
60676;BME280;46716;38.014;-7.874;2022-10-16T05:24:39;99872.41;;;12.49;100.00
60676;BME280;46716;38.014;-7.874;2022-10-16T05:26:40;99864.47;;;12.49;100.00
60676;BME280;46716;38.014;-7.874;2022-10-16T05:28:41;99881.47;;;12.61;100.00
60676;BME280;46716;38.014;-7.874;2022-10-16T05:30:42;99860.88;;;12.50;100.00
60676;BME280;46716;38.014;-7.874;2022-10-16T05:32:51;99849.59;;;12.47;100.00
60676;BME280;46716;38.014;-7.874;2022-10-16T05:34:52;99866.63;;;12.59;100.00
60676;BME280;46716;38.014;-7.874;2022-10-16T05:36:53;99859.44;;;12.61;100.00
60676;BME280;46716;38.014;-7.874;2022-10-16T05:38:57;99875.06;;;12.65;100.00
60676;BME280;46716;38.014;-7.874;2022-10-16T05:40:57;99846.78;;;12.50;100.00
60676;BME280;46716;38.014;-7.874;2022-10-16T05:42:58;99858.84;;;12.56;100.00
60676;BME280;46716;38.014;-7.874;2022-10-16T05:44:59;99876.75;;;12.67;100.00
60676;BME280;46716;38.014;-7.874;2022-10-16T05:47:01;99853.38;;;12.59;100.00
60676;BME280;46716;38.014;-7.874;2022-10-16T05:49:02;99857.09;;;12.71;100.00
60676;BME280;46716;38.014;-7.874;2022-10-16T05:51:06;99863.97;;;12.75;100.00
60676;BME280;46716;38.014;-7.874;2022-10-16T05:53:07;99851.31;;;12.80;100.00
60676;BME280;46716;38.014;-7.874;2022-10-16T05:55:09;99860.53;;;12.89;100.00
60676;BME280;46716;38.014;-7.874;2022-10-16T05:57:10;99858.97;;;13.01;100.00
60676;BME280;46716;38.014;-7.874;2022-10-16T05:59:11;99855.59;;;12.99;100.00
60676;BME280;46716;38.014;-7.874;2022-10-16T06:01:15;99876.59;;;13.18;100.00
60676;BME280;46716;38.014;-7.874;2022-10-16T06:03:16;99861.91;;;13.12;100.00
60676;BME280;46716;38.014;-7.874;2022-10-16T06:08:32;99888.19;;;13.32;100.00
60676;BME280;46716;38.014;-7.874;2022-10-16T06:10:33;99884.69;;;13.31;100.00
60676;BME280;46716;38.014;-7.874;2022-10-16T06:12:59;99876.03;;;13.27;100.00
60676;BME280;46716;38.014;-7.874;2022-10-16T06:15:01;99878.03;;;13.24;100.00
60676;BME280;46716;38.014;-7.874;2022-10-16T06:17:01;99884.09;;;13.26;100.00
60676;BME280;46716;38.014;-7.874;2022-10-16T06:19:03;99884.09;;;13.26;100.00
60676;BME280;46716;38.014;-7.874;2022-10-16T06:21:09;99870.50;;;13.16;100.00
60676;BME280;46716;38.014;-7.874;2022-10-16T06:23:10;99870.59;;;13.14;100.00
60676;BME280;46716;38.014;-7.874;2022-10-16T06:25:11;99878.47;;;13.16;100.00
60676;BME280;46716;38.014;-7.874;2022-10-16T06:27:12;99860.72;;;13.02;100.00
60676;BME280;46716;38.014;-7.874;2022-10-16T06:29:13;99867.97;;;12.98;100.00
60676;BME280;46716;38.014;-7.874;2022-10-16T06:31:15;99872.31;;;12.99;100.00
60676;BME280;46716;38.014;-7.874;2022-10-16T06:33:16;99861.88;;;12.96;100.00
60676;BME280;46716;38.014;-7.874;2022-10-16T06:35:17;99885.13;;;13.07;100.00
60676;BME280;46716;38.014;-7.874;2022-10-16T06:37:20;99883.09;;;13.12;100.00
60676;BME280;46716;38.014;-7.874;2022-10-16T06:39:30;99880.88;;;13.05;100.00
60676;BME280;46716;38.014;-7.874;2022-10-16T06:41:31;99878.97;;;13.07;100.00
60676;BME280;46716;38.014;-7.874;2022-10-16T06:43:37;99874.88;;;13.01;100.00
60676;BME280;46716;38.014;-7.874;2022-10-16T06:45:38;99896.94;;;13.18;100.00
60676;BME280;46716;38.014;-7.874;2022-10-16T06:47:43;99884.78;;;13.13;100.00
60676;BME280;46716;38.014;-7.874;2022-10-16T06:49:44;99867.84;;;13.16;100.00
60676;BME280;46716;38.014;-7.874;2022-10-16T06:51:45;99867.59;;;13.21;100.00
60676;BME280;46716;38.014;-7.874;2022-10-16T06:53:50;99881.84;;;13.34;100.00
60676;BME280;46716;38.014;-7.874;2022-10-16T06:55:52;99869.72;;;13.30;100.00
60676;BME280;46716;38.014;-7.874;2022-10-16T06:57:53;99857.38;;;13.29;100.00
60676;BME280;46716;38.014;-7.874;2022-10-16T06:59:54;99874.13;;;13.46;100.00
60676;BME280;46716;38.014;-7.874;2022-10-16T07:01:55;99877.22;;;13.54;100.00
60676;BME280;46716;38.014;-7.874;2022-10-16T07:03:56;99866.06;;;13.47;100.00
60676;BME280;46716;38.014;-7.874;2022-10-16T07:06:04;99869.44;;;13.51;100.00
60676;BME280;46716;38.014;-7.874;2022-10-16T07:08:09;99868.13;;;13.58;100.00
60676;BME280;46716;38.014;-7.874;2022-10-16T07:10:22;99875.72;;;13.64;100.00
60676;BME280;46716;38.014;-7.874;2022-10-16T07:14:38;99872.41;;;13.75;100.00
60676;BME280;46716;38.014;-7.874;2022-10-16T07:17:05;99860.88;;;13.76;100.00
60676;BME280;46716;38.014;-7.874;2022-10-16T07:19:08;99877.59;;;13.93;100.00
60676;BME280;46716;38.014;-7.874;2022-10-16T07:21:20;99849.41;;;13.76;100.00
60676;BME280;46716;38.014;-7.874;2022-10-16T07:23:21;99871.41;;;13.93;100.00
60676;BME280;46716;38.014;-7.874;2022-10-16T07:25:22;99892.84;;;14.04;100.00
60676;BME280;46716;38.014;-7.874;2022-10-16T07:27:31;99876.19;;;14.02;100.00
60676;BME280;46716;38.014;-7.874;2022-10-16T07:29:32;99871.44;;;14.07;100.00
60676;BME280;46716;38.014;-7.874;2022-10-16T07:31:33;99858.84;;;14.11;100.00
60676;BME280;46716;38.014;-7.874;2022-10-16T07:33:35;99848.50;;;14.21;100.00
60676;BME280;46716;38.014;-7.874;2022-10-16T07:35:37;99834.25;;;14.22;100.00
60676;BME280;46716;38.014;-7.874;2022-10-16T07:37:38;99853.78;;;14.35;100.00
60676;BME280;46716;38.014;-7.874;2022-10-16T07:39:42;99860.50;;;14.41;100.00
60676;BME280;46716;38.014;-7.874;2022-10-16T07:42:03;99886.41;;;14.52;100.00
60676;BME280;46716;38.014;-7.874;2022-10-16T07:44:04;99860.72;;;14.38;100.00
60676;BME280;46716;38.014;-7.874;2022-10-16T07:46:05;99852.09;;;14.34;100.00
60676;BME280;46716;38.014;-7.874;2022-10-16T07:48:06;99872.00;;;14.41;100.00
60676;BME280;46716;38.014;-7.874;2022-10-16T07:50:07;99863.47;;;14.36;100.00
60676;BME280;46716;38.014;-7.874;2022-10-16T07:52:08;99868.97;;;14.33;100.00
60676;BME280;46716;38.014;-7.874;2022-10-16T07:54:10;99892.09;;;14.46;100.00
60676;BME280;46716;38.014;-7.874;2022-10-16T07:56:14;99891.53;;;14.40;100.00
60676;BME280;46716;38.014;-7.874;2022-10-16T07:58:15;99885.56;;;14.37;100.00
60676;BME280;46716;38.014;-7.874;2022-10-16T08:00:17;99902.53;;;14.49;100.00
60676;BME280;46716;38.014;-7.874;2022-10-16T08:02:18;99885.28;;;14.41;100.00
60676;BME280;46716;38.014;-7.874;2022-10-16T08:04:20;99912.03;;;14.67;100.00
60676;BME280;46716;38.014;-7.874;2022-10-16T08:06:30;99912.78;;;14.84;100.00
60676;BME280;46716;38.014;-7.874;2022-10-16T08:08:36;99884.88;;;14.91;100.00
60676;BME280;46716;38.014;-7.874;2022-10-16T08:10:43;99877.00;;;14.90;100.00
60676;BME280;46716;38.014;-7.874;2022-10-16T08:12:44;99886.72;;;15.04;100.00
60676;BME280;46716;38.014;-7.874;2022-10-16T08:14:45;99887.28;;;15.09;100.00
60676;BME280;46716;38.014;-7.874;2022-10-16T08:16:46;99882.19;;;15.19;100.00
60676;BME280;46716;38.014;-7.874;2022-10-16T08:18:47;99921.53;;;15.41;100.00
60676;BME280;46716;38.014;-7.874;2022-10-16T08:20:57;99917.31;;;15.52;100.00
60676;BME280;46716;38.014;-7.874;2022-10-16T08:23:00;99916.50;;;15.64;100.00
60676;BME280;46716;38.014;-7.874;2022-10-16T08:25:09;99927.94;;;15.92;100.00
60676;BME280;46716;38.014;-7.874;2022-10-16T08:27:12;99919.34;;;16.02;100.00
60676;BME280;46716;38.014;-7.874;2022-10-16T08:29:14;99932.97;;;16.23;100.00
60676;BME280;46716;38.014;-7.874;2022-10-16T08:31:16;99905.19;;;16.27;100.00
60676;BME280;46716;38.014;-7.874;2022-10-16T08:33:17;99912.19;;;16.41;100.00
60676;BME280;46716;38.014;-7.874;2022-10-16T08:35:18;99929.25;;;16.52;100.00
60676;BME280;46716;38.014;-7.874;2022-10-16T08:37:19;99937.34;;;16.63;100.00
60676;BME280;46716;38.014;-7.874;2022-10-16T08:39:20;99935.94;;;16.71;100.00
60676;BME280;46716;38.014;-7.874;2022-10-16T08:48:52;99933.31;;;17.32;100.00
60676;BME280;46716;38.014;-7.874;2022-10-16T08:50:54;99931.34;;;17.48;99.18
60676;BME280;46716;38.014;-7.874;2022-10-16T08:52:55;99929.22;;;17.64;98.56
60676;BME280;46716;38.014;-7.874;2022-10-16T08:54:58;99917.00;;;17.73;97.66
60676;BME280;46716;38.014;-7.874;2022-10-16T08:57:11;99936.59;;;17.97;97.11
60676;BME280;46716;38.014;-7.874;2022-10-16T08:59:19;99924.97;;;18.09;96.53
60676;BME280;46716;38.014;-7.874;2022-10-16T09:01:22;99922.47;;;18.30;95.83
60676;BME280;46716;38.014;-7.874;2022-10-16T09:03:30;99933.66;;;18.58;94.96
60676;BME280;46716;38.014;-7.874;2022-10-16T09:10:06;99940.34;;;18.87;91.06
60676;BME280;46716;38.014;-7.874;2022-10-16T09:17:01;99917.72;;;18.68;92.39
60676;BME280;46716;38.014;-7.874;2022-10-16T09:19:14;99927.97;;;18.63;92.66
60676;BME280;46716;38.014;-7.874;2022-10-16T09:21:30;99924.31;;;18.53;94.14
60676;BME280;46716;38.014;-7.874;2022-10-16T09:23:34;99920.53;;;18.55;94.78
60676;BME280;46716;38.014;-7.874;2022-10-16T09:25:37;99918.47;;;18.70;94.88
60676;BME280;46716;38.014;-7.874;2022-10-16T09:27:40;99909.19;;;18.86;93.81
60676;BME280;46716;38.014;-7.874;2022-10-16T09:29:41;99922.56;;;19.09;93.37
60676;BME280;46716;38.014;-7.874;2022-10-16T09:31:42;99918.22;;;19.29;91.88
60676;BME280;46716;38.014;-7.874;2022-10-16T09:33:45;99915.66;;;19.39;91.35
60676;BME280;46716;38.014;-7.874;2022-10-16T09:35:49;99924.13;;;19.56;90.79
60676;BME280;46716;38.014;-7.874;2022-10-16T09:37:54;99919.84;;;19.53;88.31
60676;BME280;46716;38.014;-7.874;2022-10-16T09:39:55;99914.31;;;19.45;88.17
60676;BME280;46716;38.014;-7.874;2022-10-16T09:41:56;99923.50;;;19.52;88.69
60676;BME280;46716;38.014;-7.874;2022-10-16T09:43:59;99911.97;;;19.73;88.68
60676;BME280;46716;38.014;-7.874;2022-10-16T09:46:04;99927.13;;;20.27;87.76
60676;BME280;46716;38.014;-7.874;2022-10-16T09:48:13;99932.22;;;20.92;85.98
60676;BME280;46716;38.014;-7.874;2022-10-16T09:50:27;99930.03;;;21.57;81.49
60676;BME280;46716;38.014;-7.874;2022-10-16T09:52:29;99932.88;;;21.95;78.13
60676;BME280;46716;38.014;-7.874;2022-10-16T09:54:31;99944.03;;;22.10;74.68
60676;BME280;46716;38.014;-7.874;2022-10-16T09:56:34;99932.31;;;21.91;74.66
60676;BME280;46716;38.014;-7.874;2022-10-16T09:58:43;99941.94;;;21.74;75.47
60676;BME280;46716;38.014;-7.874;2022-10-16T10:00:54;99933.16;;;21.62;76.40
60676;BME280;46716;38.014;-7.874;2022-10-16T10:02:55;99924.69;;;21.77;75.56
60676;BME280;46716;38.014;-7.874;2022-10-16T10:04:56;99917.44;;;22.07;75.63
60676;BME280;46716;38.014;-7.874;2022-10-16T10:06:58;99933.84;;;22.52;74.46
60676;BME280;46716;38.014;-7.874;2022-10-16T10:09:24;99935.41;;;23.10;73.12
60676;BME280;46716;38.014;-7.874;2022-10-16T10:13:42;99924.53;;;23.48;67.74
60676;BME280;46716;38.014;-7.874;2022-10-16T10:15:43;99908.06;;;23.52;67.88
60676;BME280;46716;38.014;-7.874;2022-10-16T10:17:53;99913.00;;;23.56;68.46
60676;BME280;46716;38.014;-7.874;2022-10-16T10:19:57;99918.28;;;23.48;67.34
60676;BME280;46716;38.014;-7.874;2022-10-16T10:21:59;99923.97;;;23.63;67.34
60676;BME280;46716;38.014;-7.874;2022-10-16T10:23:59;99906.34;;;23.69;66.53
60676;BME280;46716;38.014;-7.874;2022-10-16T10:26:15;99920.53;;;23.97;66.72
60676;BME280;46716;38.014;-7.874;2022-10-16T10:28:39;99917.88;;;24.24;64.85
60676;BME280;46716;38.014;-7.874;2022-10-16T10:33:09;99933.72;;;24.00;65.16
60676;BME280;46716;38.014;-7.874;2022-10-16T10:35:30;99920.69;;;23.96;65.82
60676;BME280;46716;38.014;-7.874;2022-10-16T10:42:27;99902.06;;;24.03;65.44
60676;BME280;46716;38.014;-7.874;2022-10-16T10:47:48;99886.84;;;25.15;62.06
60676;BME280;46716;38.014;-7.874;2022-10-16T11:01:30;99858.53;;;26.34;55.37
60676;BME280;46716;38.014;-7.874;2022-10-16T11:06:36;99845.44;;;26.77;54.81
60676;BME280;46716;38.014;-7.874;2022-10-16T11:08:51;99848.13;;;26.86;53.35
60676;BME280;46716;38.014;-7.874;2022-10-16T11:11:36;99839.81;;;26.64;53.04
60676;BME280;46716;38.014;-7.874;2022-10-16T11:13:58;99835.88;;;26.35;54.38
60676;BME280;46716;38.014;-7.874;2022-10-16T11:16:22;99828.31;;;26.13;55.91
60676;BME280;46716;38.014;-7.874;2022-10-16T11:19:11;99826.78;;;26.11;56.23
60676;BME280;46716;38.014;-7.874;2022-10-16T11:21:04;99808.19;;;26.16;55.65
60676;BME280;46716;38.014;-7.874;2022-10-16T11:23:37;99829.16;;;26.14;56.56
60676;BME280;46716;38.014;-7.874;2022-10-16T11:25:46;99820.44;;;25.87;57.09
60676;BME280;46716;38.014;-7.874;2022-10-16T11:28:01;99820.16;;;25.65;57.72
60676;BME280;46716;38.014;-7.874;2022-10-16T11:30:08;99802.75;;;25.43;57.90
60676;BME280;46716;38.014;-7.874;2022-10-16T11:32:22;99799.22;;;25.34;58.80
60676;BME280;46716;38.014;-7.874;2022-10-16T11:34:39;99823.19;;;25.79;59.04
60676;BME280;46716;38.014;-7.874;2022-10-16T11:37:14;99824.81;;;25.96;57.76
60676;BME280;46716;38.014;-7.874;2022-10-16T11:39:21;99824.47;;;25.91;56.69
60676;BME280;46716;38.014;-7.874;2022-10-16T11:42:01;99814.69;;;25.90;57.87
60676;BME280;46716;38.014;-7.874;2022-10-16T11:44:05;99831.84;;;26.14;58.05
60676;BME280;46716;38.014;-7.874;2022-10-16T11:46:18;99817.69;;;26.04;57.92